Weather observations for the past three days for
Cherokee, Cherokee Municipal Airport
Imperial (Metric)
Date Time (cdt) Wind (mph) Vis. (mi.) Weather Sky Cond. Temperature (ºF) Relative Humidity Wind Chill (°F) Heat Index (°F) Pressure Precipitation (in)
Air Dwpt 6 hour altimeter (in) sea level (mb) 1 hr 3 hr 6 hr
Max. Min.
03 16:35 W 9 10.00 Fair CLR 71.6 33.8 25% 29.77 0.0
03 16:15 W 13 10.00 Fair CLR 71.6 35.6 27% 29.78 0.0
03 15:55 N 7 10.00 Fair CLR 71.6 35.6 27% 29.79 0.0
03 15:35 NW 13 G 20 10.00 Fair CLR 71.6 35.6 27% 29.79 0.0
03 15:15 Vrbl 3 G 21 10.00 Fair CLR 71.6 35.6 27% 29.8 0.0
03 14:55 Vrbl 7 G 18 10.00 Fair CLR 71.6 35.6 27% 29.81 0.0
03 14:35 N 13 G 18 10.00 Fair CLR 69.8 33.8 27% 29.81 0.0
03 14:15 N 17 10.00 Fair CLR 69.8 35.6 29% 29.82 0.0
03 13:55 N 10 G 20 10.00 Fair CLR 69.8 35.6 29% 29.82 0.0
03 13:35 NW 13 G 22 10.00 Fair CLR 69.8 35.6 29% 29.83 0.0
03 13:15 N 15 G 26 10.00 Fair CLR 69.8 37.4 31% 29.84 0.0
03 12:55 N 13 G 24 10.00 Fair CLR 68 37.4 69.1 45.3 33% 29.84 0.0
03 12:35 N 17 G 24 10.00 Fair CLR 68 37.4 33% 29.83 0.0
03 12:15 N 17 10.00 Fair CLR 68 35.6 30% 29.83 0.0
03 11:55 N 14 G 28 10.00 Fair CLR 68 37.4 33% 29.84 0.0
03 11:35 N 15 G 29 10.00 Fair CLR 66.2 35.6 32% 29.84 0.0
03 11:15 N 17 G 28 10.00 Fair CLR 66.2 37.4 35% 29.84 0.0
03 10:55 N 16 G 25 10.00 Fair CLR 66.2 39.2 37% 29.84 0.0
03 10:35 N 17 G 25 10.00 Fair CLR 64.4 37.4 37% 29.84 0.0
03 10:15 N 14 G 24 10.00 Fair CLR 64.4 39.2 40% 29.84 0.0
03 09:55 N 17 G 24 10.00 Fair CLR 62.6 39.2 42% 29.84 0.0
03 09:35 NW 15 10.00 Fair CLR 62.6 39.2 42% 29.85 0.0
03 09:15 NW 15 10.00 Fair CLR 60.8 39.2 45% 29.84 0.0
03 08:55 N 13 G 20 10.00 Fair CLR 59 37.4 45% 29.83 0.0
03 08:35 N 12 G 21 10.00 Fair CLR 57.2 37.4 48% 29.82 0.0
03 08:15 NW 12 10.00 Fair CLR 57.2 37.4 48% 29.82 0.0
03 07:55 NW 10 10.00 Fair CLR 55.4 37.4 51% 29.82 0.0
03 07:35 NW 8 10.00 Fair CLR 51.8 37.4 58% 29.81 0.0
03 07:15 S 2 10.00 Fair CLR 46.4 35.6 66% 29.8 0.0
03 06:55 S 6 10.00 Fair CLR 46.4 35.6 56.5 44.8 66% 44 29.79 0.0
03 06:35 Vrbl 3 10.00 Fair CLR 46.4 33.8 62% 29.78 0.0
03 06:15 SW 3 10.00 Fair CLR 46.4 33.8 62% 29.78 0.0
03 05:35 SW 6 10.00 Fair CLR 44.6 33.8 66% 42 29.77 0.0
03 05:15 SW 6 10.00 A Few Clouds FEW110 48.2 32 54% 46 29.78 0.0
03 04:55 SW 8 10.00 Partly Cloudy SCT120 50 32 50% 47 29.77 0.0
03 04:35 SW 8 10.00 A Few Clouds FEW120 50 32 50% 47 29.77 0.0
03 04:15 SW 9 10.00 Fair CLR 51.8 32 47% 29.77 0.0
03 03:55 SW 10 10.00 Fair CLR 51.8 32 47% 29.77 0.0
03 03:35 S 14 G 21 10.00 Fair CLR 53.6 32 44% 29.78 0.0
03 03:15 S 9 10.00 Fair CLR 51.8 32 47% 29.79 0.0
03 02:56 S 13 10.00 Fair CLR 51.8 32 47% 29.8 0.0
03 02:35 SW 8 10.00 Fair CLR 53.6 32 44% 29.81 0.0
03 02:15 S 9 10.00 Partly Cloudy SCT110 53.6 32 44% 29.8 0.0
03 01:55 S 10 10.00 Partly Cloudy FEW090 SCT110 55.4 30.2 38% 29.81 0.0
03 01:35 SW 17 G 22 10.00 Partly Cloudy SCT110 55.4 30.2 38% 29.82 0.0
03 01:15 SW 9 10.00 Partly Cloudy SCT110 55.4 30.2 38% 29.83 0.0
03 00:55 S 8 10.00 Mostly Cloudy BKN110 55.4 30.2 65.3 54 38% 29.84 0.0
03 00:35 S 15 G 21 10.00 Mostly Cloudy BKN110 57.2 30.2 36% 29.83 0.0
03 00:15 S 13 10.00 Partly Cloudy SCT120 53.6 32 44% 29.82 0.0
02 23:55 S 14 10.00 A Few Clouds FEW110 55.4 30.2 38% 29.82 0.0
02 23:35 S 17 10.00 Mostly Cloudy BKN110 55.4 30.2 38% 29.84 0.0
02 23:15 S 13 10.00 Overcast BKN090 OVC110 55.4 30.2 38% 29.85 0.0
02 22:55 S 13 10.00 Partly Cloudy SCT110 55.4 30.2 38% 29.86 0.0
02 22:35 S 15 10.00 A Few Clouds FEW110 55.4 30.2 38% 29.86 0.0
02 22:15 S 12 10.00 A Few Clouds FEW120 55.4 30.2 38% 29.87 0.0
02 21:55 S 9 10.00 Fair CLR 53.6 30.2 41% 29.88 0.0
02 21:35 S 12 10.00 Fair CLR 57.2 30.2 36% 29.88 0.0
02 21:15 S 10 10.00 Fair CLR 55.4 30.2 38% 29.88 0.0
02 20:55 S 9 10.00 Fair CLR 55.4 30.2 38% 29.88 0.0
02 20:35 S 9 10.00 Fair CLR 57.2 30.2 36% 29.89 0.0
02 20:15 S 8 10.00 Fair CLR 59 32 36% 29.9 0.0
02 19:55 SW 10 10.00 Fair CLR 62.6 30.2 30% 29.9 0.0
02 19:35 SW 13 10.00 A Few Clouds FEW110 64.4 30.2 28% 29.9 0.0
02 19:15 SW 15 G 18 10.00 A Few Clouds FEW110 64.4 28.4 26% 29.9 0.0
02 18:35 SW 10 10.00 Partly Cloudy SCT120 66.2 30.2 26% 29.94 0.0
02 18:15 W 8 10.00 A Few Clouds FEW120 66.2 30.2 26% 29.95 0.0
02 17:55 W 10 G 16 10.00 Fair CLR 66.2 28.4 24% 29.95 0.0
02 17:35 S 14 10.00 Fair CLR 66.2 32 28% 29.95 0.0
02 17:15 S 10 G 20 10.00 Fair CLR 66.2 30.2 26% 29.96 0.0
02 16:55 S 8 10.00 Fair CLR 66.2 32 28% 29.97 0.0
02 16:35 SW 9 G 16 10.00 Fair CLR 66.2 30.2 26% 29.98 0.0
02 16:15 W 13 10.00 Fair CLR 66.2 32 28% 29.99 0.0
02 15:35 SW 10 G 16 10.00 Fair CLR 64.4 32 30% 30.01 0.0
02 15:15 SW 9 10.00 Fair CLR 64.4 33.8 32% 30.02 0.0
02 14:55 S 9 G 17 10.00 Fair CLR 64.4 33.8 32% 30.02 0.0
02 14:35 W 7 10.00 Fair CLR 64.4 32 30% 30.04 0.0
02 14:15 W 6 10.00 Fair CLR 62.6 32 32% 30.05 0.0
02 13:35 W 9 10.00 Fair CLR 60.8 32 34% 30.07 0.0
02 13:15 W 8 G 18 10.00 Fair CLR 60.8 32 34% 30.08 0.0
02 12:55 SW 5 G 16 10.00 Fair CLR 60.8 32 60.6 28 34% 30.08 0.0
02 12:35 Vrbl 6 10.00 Fair CLR 59 30.2 34% 30.09 0.0
02 12:15 NW 7 G 16 10.00 Fair CLR 59 30.2 34% 30.1 0.0
02 11:56 SW 13 10.00 Fair CLR 59 30.2 34% 30.1 0.0
02 11:35 SW 9 10.00 Fair CLR 57.2 30.2 36% 30.11 0.0
02 11:15 SW 8 10.00 Fair CLR 55.4 28.4 36% 30.12 0.0
02 10:55 W 9 10.00 Fair CLR 55.4 26.6 33% 30.12 0.0
02 10:35 W 8 10.00 Fair CLR 53.6 28.4 38% 30.13 0.0
02 10:15 W 10 10.00 Fair CLR 53.6 30.2 41% 30.13 0.0
02 09:55 SW 8 10.00 Fair CLR 51.8 30.2 44% 30.14 0.0
02 09:35 SW 9 10.00 Fair CLR 50 30.2 47% 47 30.14 0.0
02 09:15 S 5 10.00 Fair CLR 48.2 33.8 58% 47 30.14 0.0
02 08:55 S 3 10.00 Fair CLR 42.8 33.8 71% 30.15 0.0
02 08:35 S 3 10.00 Fair CLR 39.2 32 75% 30.15 0.0
02 07:55 S 2 10.00 Fair CLR 33.8 32 93% 30.16 0.0
02 07:35 S 3 10.00 Fair CLR 30.2 30.2 100% 30.15 0.0
02 07:15 S 2 10.00 Fair CLR 28.4 28.4 100% 30.15 0.0
02 06:55 S 1 10.00 Fair CLR 28.4 28.4 33.6 27.5 100% 30.15 0.0
02 06:35 S 2 10.00 Fair CLR 28.4 26.6 93% 30.15 0.0
02 06:15 S 3 10.00 Fair CLR 28.4 26.6 93% 30.15 0.0
02 05:55 S 2 10.00 Fair CLR 28.4 28.4 100% 30.15 0.0
02 05:35 S 1 10.00 Fair CLR 28.4 28.4 100% 30.15 0.0
02 05:16 S 3 10.00 Fair CLR 28.4 28.4 100% 30.15 0.0
02 04:55 S 2 10.00 Fair CLR 28.4 28.4 100% 30.14 0.0
02 04:35 S 2 10.00 Fair CLR 30.2 28.4 93% 30.14 0.0
02 04:15 S 2 10.00 Fair CLR 30.2 28.4 93% 30.14 0.0
02 03:55 S 1 10.00 Fair CLR 30.2 28.4 93% 30.14 0.0
02 03:35 S 2 10.00 Fair CLR 30.2 28.4 93% 30.14 0.0
02 03:15 S 2 10.00 Fair CLR 30.2 28.4 93% 30.14 0.0
02 02:55 S 1 10.00 Fair CLR 30.2 28.4 93% 30.14 0.0
02 02:35 S 2 10.00 Fair CLR 32 30.2 93% 30.14 0.0
02 02:15 Calm 10.00 Fair CLR 30.2 28.4 93% 30.15 0.0
02 01:55 SE 1 10.00 Fair CLR 32 28.4 87% 30.15 0.0
02 01:35 SW 2 10.00 Fair CLR 32 30.2 93% 30.15 0.0
02 01:15 SW 1 10.00 Fair CLR 33.8 30.2 87% 30.15 0.0
02 00:56 S 1 10.00 Fair CLR 32 28.4 87% 30.15 0.0
02 00:35 N 1 10.00 Fair CLR 33.8 30.2 87% 30.15 0.0
02 00:15 N 1 10.00 Fair CLR 35.6 30.2 81% 30.15 0.0
01 23:55 Calm 10.00 Fair CLR 35.6 30.2 81% 30.14 0.0
01 23:35 Calm 10.00 Fair CLR 35.6 30.2 81% 30.13 0.0
01 23:15 N 1 10.00 Fair CLR 35.6 30.2 81% 30.13 0.0
01 22:55 N 2 10.00 Fair CLR 37.4 30.2 75% 30.13 0.0
01 22:35 N 2 10.00 Fair CLR 37.4 30.2 75% 30.13 0.0
01 22:15 N 1 10.00 Fair CLR 39.2 28.4 65% 30.13 0.0
01 21:55 N 1 10.00 Fair CLR 42.8 30.2 61% 30.13 0.0
01 21:35 N 2 10.00 Fair CLR 42.8 28.4 57% 30.12 0.0
01 21:15 NE 2 10.00 Fair CLR 44.6 28.4 53% 30.11 0.0
01 20:55 NE 3 10.00 Fair CLR 44.6 28.4 53% 30.11 0.0
01 20:35 NE 2 10.00 A Few Clouds FEW080 46.4 28.4 50% 30.1 0.0
01 20:15 N 6 10.00 A Few Clouds FEW080 48.2 26.6 43% 46 30.1 0.0
01 19:55 N 5 10.00 A Few Clouds FEW080 48.2 26.6 43% 47 30.09 0.0
01 19:35 N 7 10.00 Mostly Cloudy BKN080 50 26.6 40% 48 30.09 0.0
01 19:15 N 6 10.00 Mostly Cloudy FEW075 BKN080 51.8 26.6 38% 30.08 0.0
01 18:55 NE 7 10.00 Mostly Cloudy BKN075 51.8 26.6 54.9 48.9 38% 30.08 0.0
01 18:35 N 7 10.00 Overcast OVC075 51.8 26.6 38% 30.08 0.0
01 18:15 N 13 10.00 Mostly Cloudy BKN075 51.8 24.8 35% 30.08 0.0
01 17:55 N 6 10.00 Partly Cloudy SCT065 51.8 26.6 38% 30.08 0.0
01 17:35 NE 10 10.00 Overcast OVC065 53.6 26.6 35% 30.08 0.0
01 17:15 NE 7 10.00 Overcast OVC065 53.6 26.6 35% 30.08 0.0
01 16:55 N 7 10.00 Partly Cloudy SCT065 53.6 24.8 33% 30.08 0.0
01 16:35 N 10 10.00 Partly Cloudy SCT065 53.6 24.8 33% 30.08 0.0
01 16:15 Vrbl 5 10.00 Mostly Cloudy BKN065 51.8 26.6 38% 30.08 0.0
01 15:56 Vrbl 3 10.00 Mostly Cloudy BKN065 53.6 26.6 35% 30.09 0.0
01 15:35 N 13 G 17 10.00 Mostly Cloudy BKN065 51.8 26.6 38% 30.09 0.0
01 15:15 NE 12 G 16 10.00 Overcast OVC065 53.6 28.4 38% 30.09 0.0
01 14:55 N 7 10.00 Overcast OVC065 50 24.8 37% 48 30.1 0.0
01 14:35 N 9 10.00 Overcast OVC065 50 24.8 37% 47 30.09 0.0
01 14:15 N 9 10.00 Overcast OVC065 50 26.6 40% 47 30.1 0.0
01 13:55 NE 10 10.00 Overcast OVC065 50 28.4 43% 46 30.09 0.0
01 13:35 N 14 10.00 Overcast OVC065 50 26.6 40% 45 30.1 0.0
01 13:15 N 14 G 20 10.00 Overcast BKN055 OVC065 50 28.4 43% 45 30.1 0.0
01 12:55 N 15 G 20 10.00 Mostly Cloudy SCT055 BKN065 50 28.4 52.3 35.4 43% 45 30.1 0.0
01 12:35 N 10 G 20 10.00 Mostly Cloudy FEW050 BKN065 51.8 28.4 41% 30.1 0.0
01 12:15 N 15 G 21 10.00 Overcast BKN050 OVC065 48.2 28.4 46% 43 30.1 0.0
01 11:55 NW 17 10.00 Mostly Cloudy BKN055 BKN065 48.2 28.4 46% 42 30.1 0.0
01 11:35 N 9 10.00 Overcast OVC060 48.2 30.2 50% 45 30.09 0.0
01 11:15 N 14 10.00 Overcast SCT041 OVC060 48.2 30.2 50% 43 30.09 0.0
01 10:55 N 12 10.00 Mostly Cloudy SCT041 SCT048 BKN060 48.2 32 54% 44 30.09 0.0
01 10:35 N 14 10.00 Fair CLR 48.2 33.8 58% 43 30.09 0.0
01 10:15 N 12 10.00 Partly Cloudy SCT025 SCT032 SCT038 48.2 35.6 62% 44 30.09 0.0
01 09:56 N 12 10.00 Fair CLR 48.2 37.4 66% 44 30.08 0.0
01 09:35 N 12 10.00 Fair CLR 46.4 37.4 71% 42 30.08 0.0
01 09:15 N 9 10.00 A Few Clouds FEW045 44.6 37.4 76% 40 30.08 0.0
01 08:55 N 10 10.00 Mostly Cloudy BKN047 44.6 35.6 71% 40 30.08 0.0
01 08:35 N 7 10.00 Overcast OVC047 42.8 37.4 81% 39 30.08 0.0
01 08:15 N 12 10.00 Partly Cloudy SCT047 41 37.4 87% 35 30.07 0.0
01 07:55 N 8 10.00 Fair CLR 41 37.4 87% 36 30.07 0.0
01 07:35 N 8 10.00 Fair CLR 39.2 35.6 87% 34 30.06 0.0
01 07:15 N 5 10.00 Fair CLR 37.4 35.6 93% 34 30.06 0.0
01 06:55 N 5 10.00 A Few Clouds FEW070 35.6 33.8 41.2 35.2 93% 32 30.05 0.0
01 06:35 N 6 10.00 Mostly Cloudy BKN070 35.6 33.8 93% 31 30.04 0.0
01 06:16 NE 5 10.00 Mostly Cloudy BKN070 35.6 35.6 100% 32 30.04 0.0
01 05:55 NE 6 10.00 Partly Cloudy SCT070 35.6 33.8 93% 31 30.04 0.0
01 05:35 NE 2 10.00 Mostly Cloudy BKN070 BKN080 37.4 35.6 93% 30.03 0.0
01 05:15 N 2 10.00 Mostly Cloudy BKN070 37.4 35.6 93% 30.03 0.0
01 04:55 SW 1 10.00 Mostly Cloudy BKN070 BKN080 37.4 33.8 87% 30.03 0.0
01 04:35 W 1 10.00 Overcast FEW050 OVC080 35.6 33.8 93% 30.03 0.0
01 04:15 N 1 10.00 Mostly Cloudy FEW050 BKN080 37.4 33.8 87% 30.04 0.0
01 03:55 E 1 10.00 Partly Cloudy SCT085 37.4 32 81% 30.04 0.0
01 03:35 NE 3 10.00 Mostly Cloudy BKN085 39.2 33.8 81% 30.04 0.0
01 03:15 N 2 10.00 Overcast FEW055 FEW070 OVC085 39.2 35.6 87% 30.04 0.0
01 02:55 Calm 10.00 Mostly Cloudy FEW055 FEW070 BKN085 35.6 33.8 93% 30.04 0.0
01 02:35 S 3 10.00 Partly Cloudy SCT085 35.6 32 87% 30.04 0.0
01 02:15 S 2 10.00 Partly Cloudy SCT085 39.2 33.8 81% 30.04 0.0
01 01:55 S 5 10.00 Overcast OVC085 39.2 33.8 81% 36 30.05 0.0
01 01:35 SW 3 10.00 Mostly Cloudy FEW075 BKN090 41 32 70% 30.05 0.0
01 01:15 SW 1 10.00 A Few Clouds FEW090 41 33.8 76% 30.05 0.0
01 00:55 SW 5 10.00 A Few Clouds FEW090 39.2 33.8 52.9 38.7 81% 36 30.05 0.0
01 00:35 SW 2 10.00 Fair CLR 41 32 70% 30.05 0.0
01 00:15 Vrbl 1 10.00 Fair CLR 41 33.8 76% 30.05 0.0
30 23:55 W 2 10.00 Fair CLR 42.8 33.8 71% 30.05 0.0
30 23:35 W 5 10.00 Partly Cloudy SCT065 SCT080 SCT090 44.6 33.8 66% 43 30.05 0.0
30 23:15 W 8 10.00 Overcast BKN065 OVC090 46.4 33.8 62% 43 30.05 0.0
30 22:55 W 10 10.00 Overcast BKN065 OVC080 46.4 32 57% 42 30.06 0.0
30 22:35 W 3 10.00 Overcast BKN065 BKN080 OVC100 46.4 33.8 62% 30.06 0.0
30 22:15 W 1 10.00 Overcast BKN070 BKN090 OVC110 48.2 30.2 50% 30.06 0.0
30 21:55 NW 5 10.00 Mostly Cloudy SCT080 BKN095 BKN120 46.4 30.2 53% 45 30.06 0.0
30 21:29 NW 5 10.00 Overcast BKN075 OVC090 48.2 30.2 50% 47 30.06 0.0
30 21:15 NW 3 10.00 Overcast BKN065 OVC100 48.2 30.2 50% 30.05 0.0
30 20:55 W 2 10.00 Mostly Cloudy BKN110 46.4 30.2 53% 30.05 0.0
30 20:35 W 3 10.00 Fair CLR 48.2 28.4 46% 30.05 0.0
30 20:16 W 6 10.00 A Few Clouds FEW070 48.2 26.6 43% 46 30.04 0.0
30 19:55 W 5 10.00 Partly Cloudy SCT080 50 26.6 40% 49 30.04 0.0
30 19:35 W 7 10.00 Partly Cloudy FEW070 SCT085 51.8 26.6 38% 30.04 0.0
30 19:15 W 10 10.00 Mostly Cloudy SCT070 BKN085 51.8 26.6 38% 30.04 0.0
30 18:35 N 8 10.00 A Few Clouds FEW070 FEW085 FEW110 51.8 26.6 38% 30.05 0.0
30 18:15 NW 12 G 18 10.00 Partly Cloudy FEW065 SCT090 SCT110 53.6 26.6 35% 30.06 0.0
30 17:55 NW 7 10.00 Partly Cloudy FEW090 SCT110 51.8 26.6 38% 30.05 0.0
30 17:35 NW 12 10.00 A Few Clouds FEW070 FEW095 50 26.6 40% 46 30.06 0.0
30 17:15 NW 10 G 20 10.00 Partly Cloudy SCT095 50 26.6 40% 46 30.06 0.0
30 16:55 NW 10 G 21 10.00 Partly Cloudy SCT060 SCT075 SCT085 51.8 26.6 38% 30.06 0.0
Date Time (cdt) Wind (mph) Vis. (mi.) Weather Sky Cond. Air Dwpt Max. Min. Relative Humidity Wind Chill (°F) Heat Index (°F) altimeter (in) sea level (mb) 1 hr 3 hr 6 hr
6 hour
Temperature (ºF) Pressure Precipitation (in)